Time;durP1;ratioP1;P1;durP2;ratioP2;P2;SDS_P1;SDS_P2;PMS_P1;PMS_P2;Temp;Humidity;BMP_temperature;BMP_pressure;BME280_temperature;BME280_humidity;BME280_pressure;Samples;Min_cycle;Max_cycle;Signal;HPM_P1;HPM_P2
2022/04/06 00:01:11;;;;;;;3.90;3.70;;;12.80;49.90;;;;;;20840;6803;121139;-71
2022/04/06 00:03:37;;;;;;;4.53;4.23;;;12.60;50.20;;;;;;20851;6803;117976;-71
2022/04/06 00:06:02;;;;;;;4.47;4.17;;;12.30;50.80;;;;;;20640;6803;277574;-75
2022/04/06 00:08:28;;;;;;;5.40;3.50;;;12.30;51.00;;;;;;20834;6803;123214;-71
2022/04/06 00:10:54;;;;;;;4.35;4.07;;;12.20;51.10;;;;;;20644;6803;307027;-72
2022/04/06 00:13:19;;;;;;;4.40;4.00;;;12.20;51.10;;;;;;20635;6803;307301;-72
2022/04/06 00:15:45;;;;;;;4.10;3.70;;;12.50;50.90;;;;;;20831;6803;117220;-71
2022/04/06 00:18:10;;;;;;;3.37;3.17;;;12.40;50.90;;;;;;20832;6803;125155;-72
2022/04/06 00:20:37;;;;;;;3.63;3.43;;;11.80;51.60;;;;;;20848;6803;117791;-71
2022/04/06 00:23:02;;;;;;;3.90;3.70;;;11.80;51.60;;;;;;20850;6803;117027;-71
2022/04/06 00:25:28;;;;;;;3.50;3.30;;;11.60;52.10;;;;;;20850;6803;117227;-72
2022/04/06 00:27:53;;;;;;;4.73;4.43;;;11.50;52.60;;;;;;20635;6803;307550;-73
2022/04/06 00:30:19;;;;;;;3.90;3.63;;;11.70;52.60;;;;;;20832;6803;117836;-71
2022/04/06 00:32:44;;;;;;;4.13;3.93;;;11.70;52.50;;;;;;20638;6803;307162;-71
2022/04/06 00:35:30;;;;;;;4.23;3.93;;;11.90;52.40;;;;;;20633;6801;307855;-75
2022/04/06 00:37:58;;;;;;;4.20;3.90;;;12.20;51.80;;;;;;20644;6802;306061;-71
2022/04/06 00:40:24;;;;;;;3.80;3.60;;;12.40;51.10;;;;;;20830;6802;121278;-71
2022/04/06 00:42:50;;;;;;;3.70;3.50;;;12.00;51.60;;;;;;20853;6802;118194;-74
2022/04/06 00:45:16;;;;;;;4.32;4.03;;;12.00;51.50;;;;;;20631;6802;324388;-71
2022/04/06 00:47:41;;;;;;;3.97;3.78;;;12.10;51.80;;;;;;20641;6802;278443;-73
2022/04/06 00:50:07;;;;;;;4.03;3.83;;;12.30;51.50;;;;;;20611;6802;296527;-71
2022/04/06 00:52:33;;;;;;;4.10;3.80;;;12.70;50.70;;;;;;20644;6802;282062;-71
2022/04/06 00:55:00;;;;;;;4.28;4.00;;;12.70;50.60;;;;;;20635;6802;308284;-75
2022/04/06 00:57:26;;;;;;;3.60;3.40;;;12.80;50.30;;;;;;20844;6802;117839;-74
2022/04/06 00:59:51;;;;;;;3.85;3.65;;;12.60;50.60;;;;;;20636;6802;291333;-71
2022/04/06 01:02:17;;;;;;;3.77;3.57;;;12.60;50.70;;;;;;20828;6802;123186;-71
2022/04/06 01:04:42;;;;;;;3.93;3.60;;;12.40;51.00;;;;;;20855;6802;117749;-71
2022/04/06 01:07:08;;;;;;;4.10;3.90;;;12.20;51.50;;;;;;20645;6802;277450;-71
2022/04/06 01:09:33;;;;;;;3.72;3.53;;;12.20;51.50;;;;;;20635;6802;321119;-73
2022/04/06 01:11:59;;;;;;;4.33;4.03;;;12.40;51.40;;;;;;20628;6803;306875;-70
2022/04/06 01:14:25;;;;;;;3.93;3.63;;;12.60;50.80;;;;;;20834;6803;117796;-70
2022/04/06 01:16:59;;;;;;;3.97;3.67;;;12.50;51.00;;;;;;20646;6803;276975;-72
2022/04/06 01:19:32;;;;;;;3.60;3.40;;;12.30;51.70;;;;;;20852;6803;117654;-71
2022/04/06 01:21:58;;;;;;;4.15;3.85;;;12.30;51.10;;;;;;20609;6803;314972;-71
2022/04/06 01:24:23;;;;;;;3.40;3.30;;;12.30;51.20;;;;;;20824;6803;126934;-71
2022/04/06 01:26:49;;;;;;;4.07;3.87;;;12.20;51.40;;;;;;20636;6803;277247;-72
2022/04/06 01:29:14;;;;;;;4.27;4.07;;;12.30;51.50;;;;;;20630;6803;306924;-72
2022/04/06 01:31:41;;;;;;;3.23;3.13;;;12.40;51.40;;;;;;20848;6803;117235;-72
2022/04/06 01:34:06;;;;;;;4.15;3.95;;;12.40;51.40;;;;;;20617;6803;310935;-71
2022/04/06 01:36:32;;;;;;;4.17;3.87;;;12.40;51.30;;;;;;20635;6803;305066;-71
2022/04/06 01:38:57;;;;;;;3.92;3.72;;;12.60;51.00;;;;;;20634;6803;311495;-72
2022/04/06 01:41:23;;;;;;;4.35;4.05;;;12.70;50.70;;;;;;20633;6803;340344;-74
2022/04/06 01:43:48;;;;;;;4.10;3.90;;;12.80;50.30;;;;;;20611;6803;307021;-71
2022/04/06 01:46:14;;;;;;;3.67;3.47;;;12.90;50.10;;;;;;20616;6801;282204;-74
2022/04/06 01:52:11;;;;;;;4.37;3.63;;;13.00;50.10;;;;;;20853;6802;117320;-71
2022/04/06 01:53:51;;;;;;;4.10;3.80;;;12.70;50.80;;;;;;20631;6802;282225;-71
2022/04/06 01:56:16;;;;;;;4.10;3.90;;;12.80;50.70;;;;;;20608;6802;324797;-71
2022/04/06 01:58:42;;;;;;;3.47;3.27;;;12.90;50.40;;;;;;20851;6802;117739;-73
2022/04/06 02:01:07;;;;;;;4.13;3.90;;;12.70;50.70;;;;;;20634;6802;316957;-71
2022/04/06 02:03:33;;;;;;;4.17;3.97;;;12.60;50.90;;;;;;20632;6802;311402;-71
2022/04/06 02:05:58;;;;;;;4.23;4.03;;;12.70;50.60;;;;;;20643;6802;277614;-72
2022/04/06 02:08:24;;;;;;;4.10;3.90;;;12.90;50.50;;;;;;20627;6802;278110;-71
2022/04/06 02:10:50;;;;;;;4.33;4.10;;;13.00;50.10;;;;;;20645;6802;285833;-74
2022/04/06 02:13:17;;;;;;;3.83;3.62;;;13.10;50.20;;;;;;20639;6802;297479;-72
2022/04/06 02:15:42;;;;;;;4.00;3.70;;;13.00;50.00;;;;;;20851;6802;117437;-71
2022/04/06 02:18:08;;;;;;;3.70;3.40;;;12.80;50.50;;;;;;20798;6802;117997;-72
2022/04/06 02:20:34;;;;;;;3.43;3.23;;;12.10;51.90;;;;;;20846;6802;117712;-71
2022/04/06 02:22:59;;;;;;;3.70;3.40;;;12.10;51.80;;;;;;20849;6803;117637;-72
2022/04/06 02:25:25;;;;;;;3.95;3.65;;;11.90;52.50;;;;;;20846;6803;116963;-71
2022/04/06 02:27:51;;;;;;;4.10;3.80;;;11.70;52.90;;;;;;20849;6803;117564;-71
2022/04/06 02:30:17;;;;;;;4.68;4.37;;;11.60;53.40;;;;;;20604;6803;326639;-72
2022/04/06 02:32:42;;;;;;;4.40;4.10;;;11.70;53.30;;;;;;20847;6803;117402;-71
2022/04/06 02:35:08;;;;;;;3.87;3.67;;;11.80;53.30;;;;;;20845;6803;117572;-73
2022/04/06 02:37:33;;;;;;;4.50;4.20;;;11.60;53.40;;;;;;20632;6803;336931;-71
2022/04/06 02:39:59;;;;;;;4.90;4.60;;;11.80;53.40;;;;;;20638;6803;311501;-74
2022/04/06 02:42:24;;;;;;;4.30;4.10;;;12.10;52.90;;;;;;20828;6803;117994;-70
2022/04/06 02:44:50;;;;;;;4.30;4.00;;;12.00;52.80;;;;;;20852;6803;117345;-73
2022/04/06 02:47:15;;;;;;;4.70;4.40;;;11.80;53.10;;;;;;20634;6803;336069;-72
2022/04/06 02:49:41;;;;;;;4.17;3.93;;;11.90;53.20;;;;;;20854;6803;118331;-70
2022/04/06 02:52:08;;;;;;;4.50;4.27;;;12.00;53.10;;;;;;20616;6803;336451;-71
2022/04/06 02:54:33;;;;;;;4.93;4.63;;;12.00;53.10;;;;;;20850;6803;117385;-71
2022/04/06 02:56:58;;;;;;;4.50;4.30;;;11.90;53.10;;;;;;20620;6801;277920;-74
2022/04/06 02:59:24;;;;;;;4.90;4.60;;;12.00;53.00;;;;;;20641;6802;306538;-71
2022/04/06 03:01:49;;;;;;;4.60;4.30;;;12.30;52.50;;;;;;20857;6802;117435;-71
2022/04/06 03:04:15;;;;;;;5.20;4.80;;;12.20;52.50;;;;;;20616;6802;277413;-73
2022/04/06 03:06:40;;;;;;;4.40;4.10;;;12.20;52.40;;;;;;20640;6802;278316;-71
2022/04/06 03:09:07;;;;;;;4.10;3.90;;;12.50;52.10;;;;;;20626;6802;311870;-71
2022/04/06 03:11:32;;;;;;;3.60;3.40;;;12.60;51.60;;;;;;20826;6802;117178;-73
2022/04/06 03:13:58;;;;;;;3.57;3.37;;;12.50;51.90;;;;;;20618;6802;276747;-71
2022/04/06 03:16:23;;;;;;;3.60;3.40;;;12.50;51.90;;;;;;20596;6802;339553;-71
2022/04/06 03:18:49;;;;;;;3.23;3.03;;;12.70;51.50;;;;;;20842;6802;117295;-70
2022/04/06 03:21:15;;;;;;;2.87;2.77;;;12.50;51.70;;;;;;20843;6802;117223;-72
2022/04/06 03:23:41;;;;;;;3.40;3.30;;;12.20;52.30;;;;;;20619;6802;307797;-70
2022/04/06 03:26:08;;;;;;;3.03;2.83;;;12.20;52.20;;;;;;20825;6802;117282;-71
2022/04/06 03:28:33;;;;;;;3.47;3.27;;;11.90;52.90;;;;;;20841;6802;117394;-71
2022/04/06 03:30:58;;;;;;;3.37;3.17;;;11.90;52.90;;;;;;20847;6802;117094;-71
2022/04/06 03:33:24;;;;;;;3.97;3.72;;;11.70;53.30;;;;;;20634;6802;310772;-75
2022/04/06 03:35:49;;;;;;;3.93;3.63;;;11.80;53.30;;;;;;20847;6803;117541;-71
2022/04/06 03:38:16;;;;;;;3.90;3.70;;;12.00;53.20;;;;;;20616;6803;311374;-74
2022/04/06 03:40:41;;;;;;;3.93;3.73;;;11.90;53.10;;;;;;20839;6803;117888;-71
2022/04/06 03:43:07;;;;;;;3.25;3.12;;;11.90;53.10;;;;;;20854;6803;117523;-71
2022/04/06 03:45:32;;;;;;;3.40;3.20;;;11.70;53.50;;;;;;20853;6803;117469;-75
2022/04/06 03:47:58;;;;;;;3.70;3.50;;;11.50;53.90;;;;;;20644;6803;278082;-71
2022/04/06 03:50:23;;;;;;;3.90;3.70;;;11.70;54.00;;;;;;20612;6803;429866;-72
2022/04/06 03:52:49;;;;;;;3.87;3.67;;;12.00;53.30;;;;;;20854;6803;117718;-73
2022/04/06 03:55:15;;;;;;;3.30;3.10;;;11.90;53.10;;;;;;20852;6803;117682;-71
2022/04/06 03:57:40;;;;;;;4.13;3.93;;;11.70;53.50;;;;;;20635;6803;309243;-71
2022/04/06 04:00:08;;;;;;;3.97;3.77;;;11.80;53.70;;;;;;20834;6803;117271;-71
2022/04/06 04:02:32;;;;;;;4.10;3.90;;;11.80;53.70;;;;;;20624;6803;307085;-71
2022/04/06 04:04:58;;;;;;;4.40;4.20;;;11.90;53.50;;;;;;20854;6803;117164;-74
2022/04/06 04:07:23;;;;;;;3.63;3.53;;;11.80;54.10;;;;;;20850;6803;118039;-73
2022/04/06 04:09:50;;;;;;;4.50;4.20;;;11.60;53.90;;;;;;20634;6801;336501;-71
2022/04/06 04:12:15;;;;;;;4.10;3.90;;;12.00;53.40;;;;;;20609;6802;340684;-71
2022/04/06 04:14:41;;;;;;;4.07;3.77;;;12.00;53.30;;;;;;20845;6802;117546;-74
2022/04/06 04:17:07;;;;;;;4.10;3.90;;;11.80;53.70;;;;;;20856;6802;117042;-73
2022/04/06 04:19:33;;;;;;;4.67;4.37;;;11.70;53.60;;;;;;20831;6802;117147;-71
2022/04/06 04:21:58;;;;;;;4.10;3.90;;;11.50;54.10;;;;;;20849;6802;117841;-70
2022/04/06 04:24:24;;;;;;;4.60;4.40;;;11.40;54.60;;;;;;20621;6802;404796;-68
2022/04/06 04:26:49;;;;;;;4.63;4.37;;;11.60;54.50;;;;;;20634;6802;314332;-68
2022/04/06 04:29:16;;;;;;;4.10;3.90;;;12.20;53.30;;;;;;20644;6802;277029;-68
2022/04/06 04:31:41;;;;;;;4.60;4.20;;;12.10;53.20;;;;;;20831;6802;120364;-67
2022/04/06 04:34:07;;;;;;;4.62;4.32;;;12.00;53.10;;;;;;20631;6802;307019;-73
2022/04/06 04:36:32;;;;;;;4.30;4.10;;;12.10;53.20;;;;;;20622;6802;311537;-71
2022/04/06 04:38:58;;;;;;;4.60;4.20;;;12.30;52.70;;;;;;20633;6802;311967;-71
2022/04/06 04:41:24;;;;;;;4.30;4.10;;;12.50;52.30;;;;;;20637;6802;277913;-74
2022/04/06 04:43:50;;;;;;;4.53;4.22;;;12.70;51.80;;;;;;20639;6802;284360;-79
2022/04/06 04:46:15;;;;;;;4.18;3.97;;;12.80;51.60;;;;;;20826;6803;117531;-71
2022/04/06 04:48:40;;;;;;;3.97;3.77;;;12.50;51.70;;;;;;20847;6803;117450;-76
2022/04/06 04:51:08;;;;;;;4.80;4.60;;;12.20;52.50;;;;;;20659;6803;337311;-74
2022/04/06 04:53:36;;;;;;;4.82;4.55;;;12.40;53.30;;;;;;20633;6803;277494;-74
2022/04/06 04:56:01;;;;;;;4.77;4.47;;;12.30;52.50;;;;;;20645;6803;306345;-75
2022/04/06 04:58:27;;;;;;;4.40;4.20;;;12.60;52.20;;;;;;20839;6803;117114;-74
2022/04/06 05:00:54;;;;;;;5.17;4.87;;;12.40;52.40;;;;;;20647;6803;277931;-70
2022/04/06 05:03:22;;;;;;;4.80;4.50;;;12.40;52.60;;;;;;20847;6803;117158;-72
2022/04/06 05:05:51;;;;;;;4.97;4.68;;;12.30;52.80;;;;;;20633;6803;282161;-71
2022/04/06 05:08:14;;;;;;;4.72;4.53;;;12.30;52.90;;;;;;20805;6803;117187;-71
2022/04/06 05:10:42;;;;;;;5.18;4.87;;;12.20;53.00;;;;;;20628;6803;311376;-69
2022/04/06 05:13:08;;;;;;;4.57;4.27;;;12.20;53.40;;;;;;20852;6803;117043;-68
2022/04/06 05:15:33;;;;;;;4.60;4.30;;;12.20;53.30;;;;;;20848;6803;117136;-73
2022/04/06 05:17:59;;;;;;;4.93;4.67;;;11.90;53.70;;;;;;20648;6803;278465;-78
2022/04/06 05:20:24;;;;;;;4.50;4.20;;;12.00;53.80;;;;;;20835;6801;117206;-71
2022/04/06 05:22:50;;;;;;;4.77;4.50;;;12.00;53.90;;;;;;20649;6802;277438;-71
2022/04/06 05:25:15;;;;;;;4.37;4.07;;;12.10;53.80;;;;;;20858;6802;117546;-75
2022/04/06 05:27:44;;;;;;;4.90;4.60;;;12.00;53.70;;;;;;20627;6802;279535;-71
2022/04/06 05:30:10;;;;;;;4.70;4.50;;;12.20;53.60;;;;;;20608;6802;307837;-76
2022/04/06 05:32:36;;;;;;;5.07;4.77;;;12.60;52.40;;;;;;20626;6802;311976;-74
2022/04/06 05:35:02;;;;;;;4.30;4.10;;;12.60;52.40;;;;;;20848;6802;117599;-78
2022/04/06 05:37:27;;;;;;;4.10;3.90;;;12.50;52.40;;;;;;20838;6802;117150;-75
2022/04/06 05:39:53;;;;;;;4.53;4.20;;;12.20;52.90;;;;;;20845;6802;117656;-76
2022/04/06 05:42:19;;;;;;;4.50;4.30;;;12.10;54.30;;;;;;20615;6802;335880;-75
2022/04/06 05:44:44;;;;;;;4.37;4.07;;;12.00;53.50;;;;;;20636;6802;308166;-73
2022/04/06 05:47:10;;;;;;;4.03;3.83;;;12.30;53.00;;;;;;20638;6802;283392;-78
2022/04/06 05:49:36;;;;;;;4.10;3.90;;;12.60;52.40;;;;;;20851;6802;117050;-75
2022/04/06 05:52:02;;;;;;;3.60;3.40;;;12.20;53.00;;;;;;20844;6802;117304;-73
2022/04/06 05:54:27;;;;;;;3.60;3.40;;;12.20;53.00;;;;;;20800;6802;117834;-69
2022/04/06 05:56:54;;;;;;;4.03;3.83;;;12.10;53.60;;;;;;20635;6802;292694;-77
2022/04/06 05:59:20;;;;;;;3.60;3.40;;;12.10;53.60;;;;;;20837;6803;117195;-70
2022/04/06 06:01:47;;;;;;;3.90;3.70;;;12.00;53.50;;;;;;20621;6803;336570;-71
2022/04/06 06:04:12;;;;;;;3.50;3.30;;;12.20;53.40;;;;;;20608;6803;310357;-71
2022/04/06 06:06:37;;;;;;;3.60;3.40;;;12.50;52.70;;;;;;20629;6803;306967;-70
2022/04/06 06:09:04;;;;;;;3.40;3.20;;;12.70;52.00;;;;;;20631;6803;306363;-72
2022/04/06 06:11:29;;;;;;;3.10;3.00;;;13.10;51.80;;;;;;20601;6803;285642;-76
2022/04/06 06:13:55;;;;;;;3.33;3.13;;;13.00;51.10;;;;;;20628;6803;278788;-73
2022/04/06 06:16:21;;;;;;;3.23;2.93;;;13.30;50.60;;;;;;20616;6803;279927;-72
2022/04/06 06:18:46;;;;;;;3.27;3.07;;;13.30;50.70;;;;;;20631;6803;307123;-74
2022/04/06 06:21:12;;;;;;;2.90;2.80;;;13.30;50.30;;;;;;20617;6803;307562;-76
2022/04/06 06:23:38;;;;;;;2.97;2.87;;;13.40;50.40;;;;;;20630;6803;278937;-72
2022/04/06 06:26:03;;;;;;;2.87;2.67;;;13.50;50.10;;;;;;20632;6803;281668;-73
2022/04/06 06:28:30;;;;;;;2.70;2.60;;;13.50;50.00;;;;;;20599;6803;310727;-73
2022/04/06 06:30:54;;;;;;;2.75;2.65;;;13.60;49.80;;;;;;20616;6803;312019;-74
2022/04/06 06:33:20;;;;;;;2.97;2.77;;;13.70;49.90;;;;;;20836;6801;117415;-72
2022/04/06 06:35:45;;;;;;;2.70;2.33;;;13.50;50.40;;;;;;20841;6802;117006;-75
2022/04/06 06:38:11;;;;;;;2.97;2.78;;;13.20;51.20;;;;;;20608;6802;340973;-72
2022/04/06 06:40:38;;;;;;;2.77;2.67;;;13.20;51.10;;;;;;20829;6802;117851;-72
2022/04/06 06:43:03;;;;;;;2.60;2.40;;;13.10;51.30;;;;;;20843;6802;117110;-72
2022/04/06 06:45:29;;;;;;;2.70;2.60;;;12.90;51.80;;;;;;20617;6802;307544;-75
2022/04/06 06:47:56;;;;;;;3.35;3.17;;;13.00;51.40;;;;;;20847;6802;117070;-76
2022/04/06 06:50:22;;;;;;;2.97;2.78;;;13.10;52.10;;;;;;20593;6802;337860;-73
2022/04/06 06:52:48;;;;;;;2.60;2.50;;;13.10;51.50;;;;;;20844;6802;117837;-73
2022/04/06 06:55:15;;;;;;;2.30;2.20;;;13.00;51.60;;;;;;20842;6802;117718;-78
2022/04/06 06:57:41;;;;;;;2.20;1.93;;;12.90;52.00;;;;;;20847;6802;117111;-76
2022/04/06 07:00:06;;;;;;;2.90;2.80;;;12.70;52.40;;;;;;20611;6802;330252;-79
2022/04/06 07:02:32;;;;;;;2.73;2.63;;;12.80;52.10;;;;;;20629;6802;306662;-81
2022/04/06 07:04:57;;;;;;;2.70;2.60;;;13.10;51.70;;;;;;20849;6802;117088;-79
2022/04/06 07:07:24;;;;;;;3.03;2.73;;;13.20;51.50;;;;;;20628;6802;281804;-85
2022/04/06 07:09:51;;;;;;;2.60;2.40;;;13.10;51.60;;;;;;20840;6802;117145;-81
2022/04/06 07:12:16;;;;;;;2.90;2.70;;;13.10;51.60;;;;;;20805;6803;118458;-79
2022/04/06 07:14:43;;;;;;;2.78;2.67;;;12.90;52.10;;;;;;20625;6803;281547;-81
2022/04/06 07:17:09;;;;;;;2.40;2.30;;;13.00;52.00;;;;;;20841;6803;117184;-82
2022/04/06 07:19:35;;;;;;;2.67;2.57;;;13.00;52.20;;;;;;20621;6803;307767;-81
2022/04/06 07:22:00;;;;;;;2.73;2.63;;;13.20;51.60;;;;;;20835;6803;117062;-79
2022/04/06 07:24:26;;;;;;;3.60;3.30;;;13.10;51.60;;;;;;20607;6803;337478;-78
2022/04/06 07:26:51;;;;;;;4.40;2.67;;;13.30;51.40;;;;;;20846;6803;117278;-79
2022/04/06 07:29:17;;;;;;;2.43;2.33;;;13.20;51.60;;;;;;20850;6803;117519;-79
2022/04/06 07:31:42;;;;;;;2.50;2.40;;;13.10;52.20;;;;;;20852;6803;121723;-80
2022/04/06 07:34:08;;;;;;;3.30;3.00;;;13.00;52.70;;;;;;20643;6803;309728;-78
2022/04/06 07:36:34;;;;;;;2.53;2.43;;;13.10;52.10;;;;;;20643;6803;307098;-78
2022/04/06 07:39:02;;;;;;;2.80;2.60;;;13.50;51.20;;;;;;20641;6803;307457;-80
2022/04/06 07:41:28;;;;;;;2.30;2.20;;;13.80;50.50;;;;;;20631;6803;277485;-78
2022/04/06 07:43:53;;;;;;;2.05;1.95;;;14.00;49.80;;;;;;20844;6801;117032;-79
2022/04/06 07:46:19;;;;;;;2.00;1.90;;;13.90;49.70;;;;;;20620;6802;306618;-78
2022/04/06 07:48:45;;;;;;;2.33;2.10;;;13.90;49.30;;;;;;20640;6802;309873;-79
2022/04/06 07:51:10;;;;;;;1.97;1.87;;;14.00;48.80;;;;;;20861;6802;117481;-78
2022/04/06 07:53:36;;;;;;;1.80;1.70;;;13.70;49.80;;;;;;20857;6802;117153;-78
2022/04/06 07:56:02;;;;;;;1.50;1.40;;;13.70;49.80;;;;;;20860;6802;117726;-78
2022/04/06 07:58:28;;;;;;;2.87;2.47;;;13.60;49.70;;;;;;20610;6802;310284;-77
2022/04/06 08:00:54;;;;;;;2.40;2.20;;;13.60;49.70;;;;;;20640;6802;309275;-78
2022/04/06 08:03:19;;;;;;;1.90;1.80;;;13.90;49.10;;;;;;20845;6802;123011;-78
2022/04/06 08:05:45;;;;;;;2.20;2.10;;;13.90;49.10;;;;;;20851;6802;117357;-76
2022/04/06 08:08:11;;;;;;;2.10;2.00;;;13.70;49.20;;;;;;20616;6802;308925;-77
2022/04/06 08:10:38;;;;;;;1.30;1.30;;;13.70;49.40;;;;;;20846;6802;117366;-77
2022/04/06 08:13:03;;;;;;;1.50;1.40;;;13.70;49.40;;;;;;20843;6802;117228;-77
2022/04/06 08:15:30;;;;;;;1.83;1.43;;;13.30;50.10;;;;;;20849;6802;117230;-76
2022/04/06 08:17:55;;;;;;;1.50;1.40;;;13.30;50.10;;;;;;20851;6802;116221;-81
2022/04/06 08:20:21;;;;;;;1.70;1.60;;;13.20;50.50;;;;;;20616;6802;278056;-74
2022/04/06 08:22:46;;;;;;;1.53;1.30;;;13.30;49.80;;;;;;20636;6803;323427;-75
2022/04/06 08:25:13;;;;;;;2.47;2.37;;;13.70;49.10;;;;;;20629;6803;306667;-77
2022/04/06 08:27:41;;;;;;;2.60;1.30;;;14.00;48.60;;;;;;20631;6803;307043;-77
2022/04/06 08:30:12;;;;;;;1.63;1.03;;;14.30;48.00;;;;;;20853;6803;117248;-75
2022/04/06 08:32:37;;;;;;;1.20;1.10;;;14.20;48.10;;;;;;20800;6817;117354;-76
2022/04/06 08:35:03;;;;;;;1.30;1.10;;;14.00;48.60;;;;;;20599;6817;316097;-75
2022/04/06 08:37:29;;;;;;;1.42;1.33;;;14.30;48.80;;;;;;20634;6805;277053;-75
2022/04/06 08:39:55;;;;;;;1.27;1.27;;;14.30;48.10;;;;;;20788;6817;118060;-75
2022/04/06 08:42:23;;;;;;;1.00;0.97;;;14.20;49.60;;;;;;20809;6805;117721;-75
2022/04/06 08:44:48;;;;;;;1.20;1.20;;;14.20;48.90;;;;;;20565;6817;305606;-78
2022/04/06 08:47:15;;;;;;;2.53;1.03;;;14.30;48.00;;;;;;20789;6819;121101;-75
2022/04/06 08:49:40;;;;;;;0.90;0.90;;;14.30;48.30;;;;;;20796;6817;117155;-79
2022/04/06 08:52:06;;;;;;;2.00;1.05;;;14.30;48.70;;;;;;20568;6817;306701;-76
2022/04/06 08:54:31;;;;;;;0.90;0.90;;;14.40;47.80;;;;;;20853;6803;117248;-75
2022/04/06 08:56:58;;;;;;;4.30;1.13;;;14.70;47.30;;;;;;20575;6817;312842;-81
2022/04/06 08:59:23;;;;;;;1.20;1.10;;;14.70;47.30;;;;;;20611;6805;339208;-78
2022/04/06 09:01:49;;;;;;;0.80;0.80;;;15.10;46.60;;;;;;20839;6802;121128;-80
2022/04/06 09:04:14;;;;;;;0.98;0.98;;;15.20;47.30;;;;;;20767;6817;117082;-78
2022/04/06 09:06:40;;;;;;;0.70;0.70;;;15.20;47.60;;;;;;20800;6817;117902;-77
2022/04/06 09:09:06;;;;;;;2.00;1.00;;;15.10;47.50;;;;;;20584;6817;279919;-78
2022/04/06 09:11:31;;;;;;;0.70;0.70;;;15.40;45.80;;;;;;20580;6817;308032;-74
2022/04/06 09:13:57;;;;;;;0.50;0.50;;;15.80;45.90;;;;;;20770;6817;117025;-71
2022/04/06 09:16:22;;;;;;;1.12;0.60;;;16.10;46.00;;;;;;20568;6817;307007;-73
2022/04/06 09:18:48;;;;;;;0.45;0.45;;;16.30;44.30;;;;;;20783;6817;117268;-76
2022/04/06 09:21:16;;;;;;;3.20;0.80;;;16.50;44.70;;;;;;20581;6817;278402;-74
2022/04/06 09:23:42;;;;;;;1.13;0.60;;;16.70;43.40;;;;;;20797;6817;117102;-76
2022/04/06 09:26:08;;;;;;;0.50;0.50;;;17.10;44.90;;;;;;20780;6817;117993;-74
2022/04/06 09:28:37;;;;;;;0.83;0.80;;;17.10;44.90;;;;;;20791;6817;117295;-73
2022/04/06 09:31:02;;;;;;;0.50;0.50;;;17.30;44.60;;;;;;20791;6817;119627;-74
2022/04/06 09:33:29;;;;;;;0.80;0.80;;;17.40;44.80;;;;;;20803;6817;117719;-74
2022/04/06 09:35:58;;;;;;;2.53;0.80;;;17.60;44.60;;;;;;20596;6817;307165;-75
2022/04/06 09:38:23;;;;;;;1.40;0.70;;;17.90;41.40;;;;;;20539;6817;279045;-72
2022/04/06 09:40:49;;;;;;;0.60;0.60;;;18.50;40.40;;;;;;20747;6832;117504;-73
2022/04/06 09:43:29;;;;;;;0.55;0.52;;;18.60;41.00;;;;;;20578;6817;312407;-78
2022/04/06 09:48:56;;;;;;;0.50;0.50;;;19.00;38.10;;;;;;20540;6832;307318;-76
2022/04/06 09:51:22;;;;;;;1.67;0.50;;;19.20;37.90;;;;;;20785;6817;121973;-79
2022/04/06 09:53:51;;;;;;;0.40;0.40;;;19.20;38.80;;;;;;20778;6830;117198;-80
2022/04/06 09:56:16;;;;;;;0.40;0.40;;;18.90;39.50;;;;;;20774;6830;121530;-78
2022/04/06 09:58:45;;;;;;;0.50;0.50;;;18.60;40.50;;;;;;20778;6830;117534;-78
2022/04/06 10:01:16;;;;;;;0.47;0.47;;;18.60;41.90;;;;;;20831;6815;117116;-79
2022/04/06 10:03:44;;;;;;;0.40;0.40;;;18.60;41.20;;;;;;20808;6826;117315;-78
2022/04/06 10:06:10;;;;;;;0.40;0.40;;;18.60;41.70;;;;;;20783;6824;117716;-77
2022/04/06 10:08:35;;;;;;;0.63;0.50;;;18.60;41.20;;;;;;20585;6831;340055;-79
2022/04/06 10:11:01;;;;;;;0.40;0.40;;;18.80;38.50;;;;;;20818;6809;117186;-79
2022/04/06 10:13:27;;;;;;;1.10;0.60;;;19.10;39.70;;;;;;20580;6826;307497;-78
2022/04/06 10:15:52;;;;;;;0.55;0.40;;;19.40;38.60;;;;;;20588;6820;340459;-75
2022/04/06 10:18:21;;;;;;;0.47;0.47;;;19.70;37.40;;;;;;20540;6826;308564;-76
2022/04/06 10:20:50;;;;;;;0.40;0.40;;;20.10;37.30;;;;;;20795;6820;116460;-79
2022/04/06 10:23:15;;;;;;;0.50;0.50;;;20.10;37.60;;;;;;20762;6826;118365;-76
2022/04/06 10:25:48;;;;;;;0.90;0.47;;;19.90;37.90;;;;;;20590;6820;307166;-76
2022/04/06 10:28:14;;;;;;;0.40;0.40;;;19.80;36.30;;;;;;20736;6827;118295;-77
2022/04/06 10:30:40;;;;;;;1.60;0.50;;;19.60;38.20;;;;;;20796;6820;117513;-77
2022/04/06 10:33:18;;;;;;;0.60;0.60;;;19.60;37.30;;;;;;20571;6827;303830;-79
2022/04/06 10:35:43;;;;;;;0.77;0.40;;;19.60;37.30;;;;;;20800;6820;121396;-72
2022/04/06 10:38:09;;;;;;;1.20;0.50;;;19.70;37.60;;;;;;20764;6827;122402;-78
2022/04/06 10:40:45;;;;;;;0.30;0.30;;;19.30;38.30;;;;;;20840;6809;120018;-80
2022/04/06 10:43:39;;;;;;;0.60;0.47;;;19.30;38.30;;;;;;20578;6824;277934;-79
2022/04/06 10:46:06;;;;;;;0.37;0.37;;;19.30;37.20;;;;;;20818;6816;116934;-79
2022/04/06 10:48:32;;;;;;;0.40;0.40;;;19.30;37.10;;;;;;20581;6824;292462;-83
2022/04/06 10:50:57;;;;;;;0.43;0.43;;;19.40;36.10;;;;;;20779;6827;117769;-78
2022/04/06 10:53:27;;;;;;;0.30;0.30;;;19.10;38.40;;;;;;20701;6820;117553;-76
2022/04/06 10:56:06;;;;;;;0.50;0.50;;;19.10;37.70;;;;;;20777;6827;117170;-72
2022/04/06 10:58:53;;;;;;;0.60;0.47;;;19.00;38.30;;;;;;20794;6820;117180;-80
2022/04/06 11:01:20;;;;;;;0.40;0.40;;;18.90;39.10;;;;;;20768;6827;118243;-78
2022/04/06 11:04:04;;;;;;;0.45;0.45;;;19.00;39.40;;;;;;20543;6820;306530;-78
2022/04/06 11:06:48;;;;;;;0.40;0.40;;;19.40;38.10;;;;;;20772;6820;117053;-80
2022/04/06 11:12:32;;;;;;;0.83;0.50;;;19.60;36.10;;;;;;20612;6820;306397;-79
2022/04/06 11:14:57;;;;;;;0.60;0.40;;;20.00;35.90;;;;;;20598;6820;328317;-87
2022/04/06 11:17:39;;;;;;;2.33;0.33;;;20.30;34.60;;;;;;20587;6825;278019;-81
2022/04/06 11:20:16;;;;;;;0.30;0.30;;;20.40;34.40;;;;;;20798;6820;120687;-78
2022/04/06 11:23:07;;;;;;;5.40;0.43;;;20.30;35.50;;;;;;20772;6826;118036;-84
2022/04/06 11:25:32;;;;;;;0.40;0.40;;;20.10;36.40;;;;;;20593;6820;282256;-81
2022/04/06 11:28:08;;;;;;;0.93;0.55;;;20.30;35.10;;;;;;20583;6824;308552;-79
2022/04/06 11:30:34;;;;;;;0.27;0.27;;;20.30;35.00;;;;;;20755;6826;117795;-82
2022/04/06 11:33:00;;;;;;;0.50;0.50;;;20.30;34.50;;;;;;20598;6820;322012;-80
2022/04/06 11:35:26;;;;;;;0.20;0.20;;;20.30;34.50;;;;;;20773;6826;117247;-74
2022/04/06 11:37:51;;;;;;;0.60;0.33;;;20.20;35.50;;;;;;20794;6820;121081;-78
2022/04/06 11:40:17;;;;;;;0.30;0.30;;;20.10;36.30;;;;;;20553;6820;314116;-80
2022/04/06 11:42:48;;;;;;;0.40;0.40;;;20.10;33.90;;;;;;20761;6820;117265;-77
2022/04/06 11:45:27;;;;;;;0.30;0.30;;;20.00;34.70;;;;;;20554;6827;306631;-78
2022/04/06 11:47:53;;;;;;;0.30;0.30;;;20.00;35.40;;;;;;20793;6820;117941;-83
2022/04/06 11:50:20;;;;;;;2.63;0.40;;;20.00;35.60;;;;;;20751;6827;117370;-82
2022/04/06 11:52:48;;;;;;;0.87;0.30;;;19.60;35.60;;;;;;20833;6809;117650;-84
2022/04/06 11:55:13;;;;;;;0.20;0.20;;;19.50;35.50;;;;;;20793;6827;118338;-83
2022/04/06 11:57:45;;;;;;;0.50;0.40;;;19.40;36.20;;;;;;20624;6820;277095;-81
2022/04/06 12:00:09;;;;;;;0.30;0.30;;;19.50;34.00;;;;;;20568;6820;306898;-77
2022/04/06 12:02:45;;;;;;;0.40;0.40;;;19.80;34.70;;;;;;20791;6820;123085;-76
2022/04/06 12:05:10;;;;;;;0.97;0.47;;;19.80;34.70;;;;;;20768;6827;121846;-76
2022/04/06 12:07:38;;;;;;;3.30;0.50;;;19.50;36.00;;;;;;20808;6820;123827;-86
2022/04/06 12:10:04;;;;;;;0.60;0.50;;;19.40;35.80;;;;;;20804;6820;118126;-79
2022/04/06 12:12:30;;;;;;;1.17;0.40;;;19.30;36.40;;;;;;20768;6820;117451;-77
2022/04/06 12:14:55;;;;;;;1.80;0.40;;;19.20;36.20;;;;;;20577;6820;295887;-76
2022/04/06 12:17:20;;;;;;;0.57;0.57;;;19.40;34.40;;;;;;20793;6820;117231;-70
2022/04/06 12:19:46;;;;;;;0.27;0.27;;;19.40;35.70;;;;;;20767;6827;117222;-71
2022/04/06 12:22:12;;;;;;;0.30;0.30;;;19.40;34.60;;;;;;20554;6820;306054;-75
2022/04/06 12:24:38;;;;;;;0.40;0.40;;;19.40;34.90;;;;;;20791;6820;118160;-75
2022/04/06 12:27:05;;;;;;;0.40;0.40;;;19.40;34.90;;;;;;20553;6827;336937;-75
2022/04/06 12:29:39;;;;;;;0.77;0.70;;;19.50;34.30;;;;;;20795;6819;118283;-75
2022/04/06 12:32:00;;;;;;;0.77;0.77;;;19.50;35.50;;;;;;20783;6820;119668;-75
2022/04/06 12:34:39;;;;;;;0.80;0.53;;;19.30;36.20;;;;;;20774;6820;117764;-76
2022/04/06 12:39:50;;;;;;;0.30;0.30;;;19.40;35.00;;;;;;20586;6820;306047;-79
2022/04/06 12:42:15;;;;;;;0.50;0.50;;;19.80;35.00;;;;;;20747;6826;127963;-76
2022/04/06 12:44:41;;;;;;;0.50;0.50;;;20.00;34.60;;;;;;20562;6818;282090;-72